Time;durP1;ratioP1;P1;durP2;ratioP2;P2;SDS_P1;SDS_P2;PMS_P1;PMS_P2;Temp;Humidity;BMP_temperature;BMP_pressure;BME280_temperature;BME280_humidity;BME280_pressure;Samples;Min_cycle;Max_cycle;Signal;HPM_P1;HPM_P2
2021/12/15 00:02:34;;;;;;;;;;;23.00;48.50;;;;;;6232376;28;19928;-40
2021/12/15 00:05:36;;;;;;;;;;;21.30;47.80;;;;;;6243613;28;20860;-40
2021/12/15 00:08:37;;;;;;;;;;;21.30;47.60;;;;;;6239367;28;19959;-41
2021/12/15 00:11:40;;;;;;;;;;;21.70;48.50;;;;;;6238370;28;20762;-39
2021/12/15 00:14:42;;;;;;;;;;;21.20;47.60;;;;;;6227783;28;20054;-39
2021/12/15 00:17:48;;;;;;;;;;;21.30;47.70;;;;;;6226267;28;20908;-41
2021/12/15 00:20:49;;;;;;;;;;;21.20;48.40;;;;;;6241028;28;19968;-39
2021/12/15 00:23:51;;;;;;;;;;;21.20;47.20;;;;;;6245869;28;19975;-39
2021/12/15 00:26:53;;;;;;;;;;;21.80;48.00;;;;;;6241384;28;20047;-41
2021/12/15 00:29:55;;;;;;;;;;;21.60;47.80;;;;;;6244891;28;19929;-39
2021/12/15 00:32:57;;;;;;;;;;;21.30;47.80;;;;;;6239992;28;19964;-40
2021/12/15 00:35:59;;;;;;;;;;;21.20;47.70;;;;;;6238494;28;20650;-40
2021/12/15 00:39:00;;;;;;;;;;;21.80;48.00;;;;;;6238101;28;19928;-38
2021/12/15 00:42:03;;;;;;;;;;;21.30;47.60;;;;;;6241859;28;20810;-39
2021/12/15 00:45:05;;;;;;;;;;;21.20;47.60;;;;;;6222789;28;19950;-39
2021/12/15 00:48:12;;;;;;;;;;;21.70;47.80;;;;;;6245505;28;19959;-39
2021/12/15 00:51:13;;;;;;;;;;;21.20;47.70;;;;;;6238338;28;19924;-39
2021/12/15 00:54:15;;;;;;;;;;;21.30;47.60;;;;;;6242034;28;19928;-39
2021/12/15 00:57:16;;;;;;;;;;;21.70;47.80;;;;;;6224578;28;20035;-39
2021/12/15 01:00:20;;;;;;;;;;;21.60;47.90;;;;;;6229933;28;20797;-38
2021/12/15 01:03:22;;;;;;;;;;;22.10;48.00;;;;;;6240322;28;21196;-39
2021/12/15 01:06:24;;;;;;;;;;;21.40;47.80;;;;;;6239050;28;19972;-40
2021/12/15 01:09:30;;;;;;;;;;;21.30;47.60;;;;;;6216580;28;19967;-39
2021/12/15 01:12:49;;;;;;;;;;;21.20;47.40;;;;;;6216548;28;19929;-38
2021/12/15 01:22:27;;;;;;;;;;;21.10;47.40;;;;;;6215855;28;19997;-38
2021/12/15 01:25:32;;;;;;;;;;;21.50;47.70;;;;;;6212408;28;19960;-39
2021/12/15 01:28:33;;;;;;;;;;;21.60;47.80;;;;;;6232284;28;19962;-39
2021/12/15 01:31:35;;;;;;;;;;;21.30;47.60;;;;;;6242919;28;20001;-39
2021/12/15 01:34:37;;;;;;;;;;;20.90;47.60;;;;;;6237656;28;20027;-39
2021/12/15 01:37:39;;;;;;;;;;;21.50;47.80;;;;;;6239102;28;19978;-43
2021/12/15 01:40:43;;;;;;;;;;;21.10;47.60;;;;;;6235951;28;21025;-41
2021/12/15 01:46:51;;;;;;;;;;;21.70;47.90;;;;;;6225522;28;20946;-39
2021/12/15 01:47:10;;;;;;;;;;;21.70;47.90;;;;;;6221320;28;20714;-39
2021/12/15 01:50:12;;;;;;;;;;;21.50;47.90;;;;;;6229745;28;19924;-39
2021/12/15 01:53:14;;;;;;;;;;;21.10;47.70;;;;;;6237425;28;20764;-40
2021/12/15 01:56:15;;;;;;;;;;;21.50;47.80;;;;;;6243244;28;19975;-41
2021/12/15 01:59:18;;;;;;;;;;;21.50;47.80;;;;;;6239889;28;20758;-38
2021/12/15 02:02:20;;;;;;;;;;;21.20;47.60;;;;;;6237752;28;19932;-39
2021/12/15 02:05:23;;;;;;;;;;;21.10;47.60;;;;;;6235400;28;19955;-39
2021/12/15 02:08:25;;;;;;;;;;;20.90;47.40;;;;;;6240878;28;19936;-38
2021/12/15 02:11:26;;;;;;;;;;;21.20;47.80;;;;;;6240972;28;19994;-39
2021/12/15 02:14:30;;;;;;;;;;;21.60;48.00;;;;;;6242665;28;21053;-39
2021/12/15 02:17:33;;;;;;;;;;;21.20;47.50;;;;;;6254848;28;19929;-38
2021/12/15 02:20:37;;;;;;;;;;;21.30;47.70;;;;;;6238967;28;20039;-39
2021/12/15 02:23:45;;;;;;;;;;;22.30;48.30;;;;;;6221544;28;20011;-39
2021/12/15 02:26:50;;;;;;;;;;;21.20;47.70;;;;;;6243120;28;19932;-38
2021/12/15 02:29:59;;;;;;;;;;;21.60;47.90;;;;;;6241296;28;19924;-39
2021/12/15 02:33:10;;;;;;;;;;;21.30;47.40;;;;;;6245210;28;19928;-39
2021/12/15 02:39:29;;;;;;;;;;;21.20;47.60;;;;;;6239431;28;19952;-39
2021/12/15 02:42:32;;;;;;;;;;;21.00;47.50;;;;;;6243024;28;19932;-39
2021/12/15 02:45:34;;;;;;;;;;;21.10;47.50;;;;;;6225155;28;20043;-40
2021/12/15 02:48:35;;;;;;;;;;;21.20;47.20;;;;;;6230219;28;20061;-38
2021/12/15 02:51:39;;;;;;;;;;;21.10;47.60;;;;;;6227556;28;19928;-40
2021/12/15 02:54:40;;;;;;;;;;;21.10;47.60;;;;;;6231068;28;21277;-38
2021/12/15 02:57:42;;;;;;;;;;;21.60;47.90;;;;;;6231761;28;20833;-38
2021/12/15 03:00:49;;;;;;;;;;;21.90;48.00;;;;;;6209240;28;19932;-38
2021/12/15 03:07:13;;;;;;;;;;;21.00;47.40;;;;;;6216020;28;20824;-38
2021/12/15 03:16:38;;;;;;;;;;;21.40;47.70;;;;;;6229657;28;20393;-39
2021/12/15 03:19:39;;;;;;;;;;;21.00;47.50;;;;;;6237426;28;19928;-39
2021/12/15 03:22:42;;;;;;;;;;;21.50;47.80;;;;;;6231548;28;19935;-39
2021/12/15 03:25:44;;;;;;;;;;;21.20;47.50;;;;;;6234631;28;20647;-39
2021/12/15 03:35:22;;;;;;;;;;;21.10;47.50;;;;;;6245597;28;20039;-41
2021/12/15 03:38:24;;;;;;;;;;;20.90;47.50;;;;;;6219424;28;20057;-39
2021/12/15 03:41:25;;;;;;;;;;;21.40;47.80;;;;;;6234967;28;20055;-39
2021/12/15 03:44:27;;;;;;;;;;;21.10;47.60;;;;;;6220955;28;19936;-38
2021/12/15 03:47:29;;;;;;;;;;;21.10;47.50;;;;;;6207749;28;19963;-38
2021/12/15 03:50:31;;;;;;;;;;;21.00;47.50;;;;;;6226130;28;19936;-38
2021/12/15 03:53:33;;;;;;;;;;;21.40;47.70;;;;;;6242690;28;20039;-39
2021/12/15 03:56:36;;;;;;;;;;;21.10;47.50;;;;;;6251761;28;20027;-38
2021/12/15 03:59:42;;;;;;;;;;;21.10;47.50;;;;;;6246735;28;20211;-38
2021/12/15 04:02:44;;;;;;;;;;;21.70;47.80;;;;;;6243763;28;20044;-41
2021/12/15 04:05:45;;;;;;;;;;;21.00;47.50;;;;;;6242957;28;20426;-38
2021/12/15 04:08:48;;;;;;;;;;;21.10;47.50;;;;;;6235810;28;20126;-39
2021/12/15 04:11:52;;;;;;;;;;;21.30;47.60;;;;;;6235211;28;19928;-39
2021/12/15 04:14:56;;;;;;;;;;;21.10;47.60;;;;;;6235594;28;19935;-40
2021/12/15 04:18:00;;;;;;;;;;;21.00;47.50;;;;;;6241315;28;20010;-42
2021/12/15 04:21:02;;;;;;;;;;;21.00;47.40;;;;;;6228374;28;19967;-40
2021/12/15 04:24:06;;;;;;;;;;;21.00;47.40;;;;;;6243969;28;19935;-39
2021/12/15 04:27:08;;;;;;;;;;;21.20;47.60;;;;;;6230246;28;19958;-39
2021/12/15 04:30:10;;;;;;;;;;;21.00;47.50;;;;;;6236380;28;20027;-41
2021/12/15 04:33:14;;;;;;;;;;;21.90;47.90;;;;;;6242201;28;20975;-39
2021/12/15 04:36:16;;;;;;;;;;;21.20;47.50;;;;;;6227543;28;19927;-41
2021/12/15 04:39:20;;;;;;;;;;;21.10;47.40;;;;;;6242688;28;19928;-38
2021/12/15 04:42:23;;;;;;;;;;;21.10;47.30;;;;;;6221610;28;20504;-38
2021/12/15 04:45:24;;;;;;;;;;;21.30;47.40;;;;;;6227780;28;20528;-39
2021/12/15 04:48:26;;;;;;;;;;;20.90;47.50;;;;;;6226097;28;20105;-39
2021/12/15 04:51:27;;;;;;;;;;;21.00;47.30;;;;;;6241481;28;19925;-38
2021/12/15 04:54:30;;;;;;;;;;;20.90;47.30;;;;;;6249126;28;20043;-40
2021/12/15 04:57:32;;;;;;;;;;;21.40;47.70;;;;;;6213151;28;20602;-38
2021/12/15 05:00:43;;;;;;;;;;;21.40;47.70;;;;;;6221796;28;20013;-38
2021/12/15 05:03:45;;;;;;;;;;;21.50;47.70;;;;;;6236510;28;20067;-38
2021/12/15 05:06:46;;;;;;;;;;;21.10;47.50;;;;;;6231546;28;20232;-38
2021/12/15 05:09:50;;;;;;;;;;;21.00;47.40;;;;;;6218512;28;21267;-39
2021/12/15 05:12:51;;;;;;;;;;;21.20;47.60;;;;;;6233899;28;19963;-38
2021/12/15 05:15:53;;;;;;;;;;;21.10;47.60;;;;;;6232274;28;19929;-38
2021/12/15 05:18:55;;;;;;;;;;;21.20;47.60;;;;;;6215189;28;19932;-38
2021/12/15 05:21:58;;;;;;;;;;;20.80;47.30;;;;;;6225311;28;19950;-38
2021/12/15 05:25:00;;;;;;;;;;;21.30;47.60;;;;;;6228050;28;20570;-40
2021/12/15 05:28:01;;;;;;;;;;;21.30;47.70;;;;;;6228286;28;19928;-38
2021/12/15 05:31:03;;;;;;;;;;;21.00;47.50;;;;;;6229841;28;20014;-38
2021/12/15 05:34:04;;;;;;;;;;;21.60;47.70;;;;;;6231950;28;19924;-38
2021/12/15 05:37:06;;;;;;;;;;;21.30;47.70;;;;;;6227669;28;20077;-38
2021/12/15 05:40:09;;;;;;;;;;;21.10;47.40;;;;;;6232287;28;19932;-39
2021/12/15 05:43:10;;;;;;;;;;;20.90;47.40;;;;;;6230992;28;20584;-38
2021/12/15 05:46:12;;;;;;;;;;;20.90;47.50;;;;;;6212102;28;20035;-38
2021/12/15 05:49:14;;;;;;;;;;;21.20;47.50;;;;;;6227030;28;20441;-38
2021/12/15 05:52:16;;;;;;;;;;;21.10;47.20;;;;;;6223620;28;19928;-38
2021/12/15 05:55:19;;;;;;;;;;;21.00;47.40;;;;;;6223898;28;20101;-39
2021/12/15 05:58:20;;;;;;;;;;;20.90;47.50;;;;;;6222011;28;19929;-39
2021/12/15 06:01:21;;;;;;;;;;;20.60;47.40;;;;;;6232139;28;19946;-38
2021/12/15 06:04:23;;;;;;;;;;;21.30;47.60;;;;;;6234845;28;19928;-39
2021/12/15 06:07:24;;;;;;;;;;;21.00;47.50;;;;;;6238621;28;20051;-38
2021/12/15 06:10:28;;;;;;;;;;;21.20;47.70;;;;;;6235663;28;20022;-39
2021/12/15 06:13:30;;;;;;;;;;;21.00;47.70;;;;;;6232978;28;19935;-40
2021/12/15 06:16:32;;;;;;;;;;;20.70;47.40;;;;;;6239001;28;20916;-38
2021/12/15 06:19:33;;;;;;;;;;;21.40;47.70;;;;;;6230586;28;19928;-38
2021/12/15 06:22:37;;;;;;;;;;;20.80;47.40;;;;;;6236901;28;19924;-38
2021/12/15 06:25:39;;;;;;;;;;;20.90;47.60;;;;;;6239491;28;20046;-38
2021/12/15 06:28:41;;;;;;;;;;;20.70;47.30;;;;;;6236983;28;20838;-38
2021/12/15 06:31:42;;;;;;;;;;;20.80;46.80;;;;;;6235595;28;20975;-39
2021/12/15 06:34:44;;;;;;;;;;;21.20;47.60;;;;;;6239835;28;19967;-38
2021/12/15 06:37:45;;;;;;;;;;;21.10;47.60;;;;;;6238129;28;19935;-39
2021/12/15 06:40:47;;;;;;;;;;;20.80;47.40;;;;;;6244201;28;20040;-39
2021/12/15 06:43:52;;;;;;;;;;;20.90;47.40;;;;;;6223336;28;19924;-39
2021/12/15 06:47:19;;;;;;;;;;;20.90;47.40;;;;;;6232982;28;20035;-40
2021/12/15 07:00:07;;;;;;;;;;;21.10;47.20;;;;;;6223661;28;19928;-38
2021/12/15 07:03:09;;;;;;;;;;;21.00;47.00;;;;;;6213001;28;19928;-40
2021/12/15 07:06:10;;;;;;;;;;;21.90;47.50;;;;;;6206020;28;20738;-39
2021/12/15 07:09:12;;;;;;;;;;;21.20;47.00;;;;;;6226070;28;20886;-39
2021/12/15 07:12:14;;;;;;;;;;;21.00;47.00;;;;;;6219857;28;19928;-39
2021/12/15 07:15:15;;;;;;;;;;;21.20;47.00;;;;;;6226691;28;20122;-39
2021/12/15 07:18:26;;;;;;;;;;;21.20;46.80;;;;;;6228303;28;19940;-38
2021/12/15 07:21:34;;;;;;;;;;;21.10;46.80;;;;;;6229442;28;20965;-39
2021/12/15 07:24:36;;;;;;;;;;;21.10;46.80;;;;;;6219190;28;20862;-40
2021/12/15 07:27:38;;;;;;;;;;;21.80;47.10;;;;;;6198892;28;19968;-38
2021/12/15 07:30:40;;;;;;;;;;;21.10;46.90;;;;;;6198661;28;20042;-39
2021/12/15 07:33:41;;;;;;;;;;;21.50;46.80;;;;;;6198685;28;19932;-41
2021/12/15 07:36:43;;;;;;;;;;;22.10;47.20;;;;;;6198561;28;19929;-38
2021/12/15 07:39:54;;;;;;;;;;;21.40;46.90;;;;;;6191017;28;22133;-38
2021/12/15 07:43:05;;;;;;;;;;;21.30;46.80;;;;;;6169510;28;20088;-39
2021/12/15 07:46:08;;;;;;;;;;;21.20;46.60;;;;;;6183671;28;19929;-38
2021/12/15 07:49:10;;;;;;;;;;;21.70;46.30;;;;;;6179357;28;20048;-38
2021/12/15 07:52:11;;;;;;;;;;;21.70;46.70;;;;;;6178968;28;19928;-39
2021/12/15 07:55:13;;;;;;;;;;;22.00;47.60;;;;;;6163093;28;19997;-38
2021/12/15 07:58:18;;;;;;;;;;;21.40;46.60;;;;;;6150453;28;19928;-39
2021/12/15 08:01:20;;;;;;;;;;;21.30;46.50;;;;;;6103188;28;19932;-38
2021/12/15 08:04:22;;;;;;;;;;;21.50;46.40;;;;;;6116591;28;20051;-41
2021/12/15 08:07:23;;;;;;;;;;;21.80;46.60;;;;;;6087249;28;19932;-38
2021/12/15 08:10:25;;;;;;;;;;;21.50;46.50;;;;;;6096402;28;19928;-40
2021/12/15 08:13:28;;;;;;;;;;;21.70;46.60;;;;;;6099700;28;19963;-40
2021/12/15 08:16:30;;;;;;;;;;;21.10;46.20;;;;;;6113092;28;19928;-40
2021/12/15 08:19:31;;;;;;;;;;;22.00;46.00;;;;;;6101047;28;19928;-41
2021/12/15 08:22:33;;;;;;;;;;;21.90;46.10;;;;;;6095476;28;19935;-40
2021/12/15 08:25:35;;;;;;;;;;;21.50;46.50;;;;;;6093296;28;21291;-39
2021/12/15 08:28:37;;;;;;;;;;;22.00;46.70;;;;;;6088016;28;20056;-42
2021/12/15 08:31:39;;;;;;;;;;;22.00;46.70;;;;;;6075712;28;20001;-40
2021/12/15 08:34:40;;;;;;;;;;;21.90;46.60;;;;;;6066387;28;20038;-40
2021/12/15 08:37:42;;;;;;;;;;;21.80;46.60;;;;;;6068101;28;19997;-42
2021/12/15 08:40:44;;;;;;;;;;;21.60;46.10;;;;;;6080633;28;19928;-42
2021/12/15 08:43:46;;;;;;;;;;;22.10;46.60;;;;;;6075330;28;22189;-43
2021/12/15 08:46:48;;;;;;;;;;;22.10;46.60;;;;;;6054164;28;20922;-41
2021/12/15 08:49:50;;;;;;;;;;;21.70;46.30;;;;;;6083044;28;19932;-43
2021/12/15 08:52:51;;;;;;;;;;;21.80;46.40;;;;;;6087378;28;21245;-42
2021/12/15 08:55:53;;;;;;;;;;;22.40;47.20;;;;;;6089973;28;19969;-41
2021/12/15 08:58:55;;;;;;;;;;;21.80;45.80;;;;;;6070763;28;19928;-41
2021/12/15 09:01:57;;;;;;;;;;;22.10;46.10;;;;;;6062420;28;19927;-42
2021/12/15 09:04:59;;;;;;;;;;;22.40;46.10;;;;;;6043939;28;21164;-39
2021/12/15 09:08:01;;;;;;;;;;;22.40;45.60;;;;;;6035790;28;19932;-42
2021/12/15 09:11:04;;;;;;;;;;;22.20;46.00;;;;;;6081297;28;20071;-41
2021/12/15 09:14:06;;;;;;;;;;;21.80;45.60;;;;;;6074928;28;19980;-41
2021/12/15 09:17:08;;;;;;;;;;;22.10;45.70;;;;;;6085208;28;19946;-42
2021/12/15 09:20:11;;;;;;;;;;;22.70;46.10;;;;;;6119109;28;19928;-39
2021/12/15 09:23:14;;;;;;;;;;;22.70;46.40;;;;;;6103892;28;20004;-39
2021/12/15 09:26:15;;;;;;;;;;;22.50;45.10;;;;;;6097525;28;19935;-41
2021/12/15 09:29:18;;;;;;;;;;;22.40;45.90;;;;;;6089688;28;19928;-41
2021/12/15 09:32:19;;;;;;;;;;;22.40;45.20;;;;;;6067215;28;20030;-42
2021/12/15 09:35:22;;;;;;;;;;;22.10;45.70;;;;;;6106890;28;20015;-41
2021/12/15 09:38:23;;;;;;;;;;;22.30;45.60;;;;;;6090070;28;21537;-43
2021/12/15 09:41:26;;;;;;;;;;;22.70;45.70;;;;;;6071954;28;20033;-42
2021/12/15 09:44:28;;;;;;;;;;;22.40;45.50;;;;;;6093946;28;20227;-41
2021/12/15 09:47:44;;;;;;;;;;;21.90;45.30;;;;;;6089572;28;20829;-42
2021/12/15 09:57:26;;;;;;;;;;;22.70;45.50;;;;;;6088910;28;20203;-39
2021/12/15 10:04:07;;;;;;;;;;;22.80;45.50;;;;;;6069706;28;20074;-41
2021/12/15 10:07:21;;;;;;;;;;;23.00;45.50;;;;;;6055998;28;22703;-41
2021/12/15 10:20:20;;;;;;;;;;;22.80;45.50;;;;;;6072331;28;19928;-41
2021/12/15 10:23:25;;;;;;;;;;;23.20;45.60;;;;;;6062165;28;19928;-38
2021/12/15 10:26:26;;;;;;;;;;;23.00;45.50;;;;;;6079916;28;19928;-38
2021/12/15 10:29:28;;;;;;;;;;;22.70;45.60;;;;;;6064463;28;19935;-38
2021/12/15 10:32:31;;;;;;;;;;;22.70;45.70;;;;;;6084242;28;20968;-39
2021/12/15 10:35:34;;;;;;;;;;;23.00;45.50;;;;;;6062298;28;19928;-41
2021/12/15 10:38:40;;;;;;;;;;;22.60;45.40;;;;;;6071773;28;25556;-39
2021/12/15 10:41:43;;;;;;;;;;;22.50;45.20;;;;;;6063522;28;20026;-38
2021/12/15 10:44:44;;;;;;;;;;;22.50;45.10;;;;;;6042894;28;19928;-37
2021/12/15 10:47:49;;;;;;;;;;;22.30;45.20;;;;;;6071494;28;19936;-41
2021/12/15 10:50:51;;;;;;;;;;;22.70;45.20;;;;;;6082972;28;22852;-38
2021/12/15 10:53:55;;;;;;;;;;;23.60;45.50;;;;;;6077044;28;19928;-38
2021/12/15 10:56:59;;;;;;;;;;;23.90;45.70;;;;;;6068035;28;20013;-39
2021/12/15 11:00:00;;;;;;;;;;;23.00;45.10;;;;;;6046628;28;20857;-38
2021/12/15 11:03:23;;;;;;;;;;;23.00;45.10;;;;;;6068772;28;28499;-40
2021/12/15 11:06:44;;;;;;;;;;;22.50;45.10;;;;;;6079608;28;20002;-39
2021/12/15 11:09:49;;;;;;;;;;;23.00;44.80;;;;;;6106029;28;19929;-40
2021/12/15 11:12:53;;;;;;;;;;;23.00;45.50;;;;;;6108601;28;20858;-39
2021/12/15 11:15:54;;;;;;;;;;;22.70;45.30;;;;;;6098783;28;29691;-38
2021/12/15 11:18:57;;;;;;;;;;;23.00;45.60;;;;;;6082027;28;20282;-40
2021/12/15 11:21:58;;;;;;;;;;;22.50;45.30;;;;;;6082473;28;20224;-38
2021/12/15 11:25:00;;;;;;;;;;;22.70;45.10;;;;;;6113048;28;19935;-39
2021/12/15 11:28:04;;;;;;;;;;;22.90;45.60;;;;;;6126112;28;19974;-40
2021/12/15 11:31:08;;;;;;;;;;;22.40;45.50;;;;;;6118337;28;19928;-41
2021/12/15 11:34:10;;;;;;;;;;;22.50;45.50;;;;;;6119875;28;21326;-39
2021/12/15 11:37:12;;;;;;;;;;;22.50;45.70;;;;;;6127408;28;21988;-39
2021/12/15 11:40:14;;;;;;;;;;;22.60;45.50;;;;;;6157230;28;19928;-39
2021/12/15 11:43:27;;;;;;;;;;;22.90;45.70;;;;;;6136769;28;19928;-41
2021/12/15 11:46:31;;;;;;;;;;;22.50;45.50;;;;;;6150486;28;19971;-39
2021/12/15 11:49:34;;;;;;;;;;;22.30;45.50;;;;;;6162947;28;21556;-40
2021/12/15 11:52:39;;;;;;;;;;;22.50;45.70;;;;;;6155819;28;22315;-39
2021/12/15 11:55:40;;;;;;;;;;;22.40;45.50;;;;;;6149423;28;19929;-41
2021/12/15 11:58:42;;;;;;;;;;;22.30;45.50;;;;;;6161749;28;21158;-42
2021/12/15 12:01:46;;;;;;;;;;;22.60;45.60;;;;;;6165411;28;19929;-39
2021/12/15 12:04:51;;;;;;;;;;;22.70;45.70;;;;;;6164085;28;20155;-40
2021/12/15 12:07:57;;;;;;;;;;;22.80;45.40;;;;;;6143344;28;20881;-39
2021/12/15 12:11:05;;;;;;;;;;;22.80;45.80;;;;;;6151674;28;19969;-39
2021/12/15 12:14:16;;;;;;;;;;;22.90;45.70;;;;;;6150830;28;19928;-38
2021/12/15 12:17:19;;;;;;;;;;;22.50;45.40;;;;;;6164143;28;19929;-39
2021/12/15 12:20:23;;;;;;;;;;;23.30;45.90;;;;;;6163445;28;20320;-38
2021/12/15 12:23:28;;;;;;;;;;;22.40;45.40;;;;;;6153566;28;19929;-39
2021/12/15 12:26:31;;;;;;;;;;;22.50;45.60;;;;;;6172463;28;21390;-40
2021/12/15 12:29:32;;;;;;;;;;;22.60;45.60;;;;;;6151483;28;19928;-39
2021/12/15 12:32:34;;;;;;;;;;;22.60;45.60;;;;;;6143212;28;19939;-42
2021/12/15 12:35:39;;;;;;;;;;;22.80;46.00;;;;;;6115343;28;20969;-39
2021/12/15 12:38:42;;;;;;;;;;;22.90;45.60;;;;;;6122265;28;19935;-39
2021/12/15 12:41:46;;;;;;;;;;;22.50;45.50;;;;;;6119823;28;20063;-40
2021/12/15 12:44:50;;;;;;;;;;;23.00;45.40;;;;;;6134507;28;19931;-40
2021/12/15 12:58:01;;;;;;;;;;;22.50;45.40;;;;;;6069244;28;19936;-44
2021/12/15 13:01:03;;;;;;;;;;;23.00;44.40;;;;;;6057146;28;20021;-47
2021/12/15 13:04:09;;;;;;;;;;;22.40;44.30;;;;;;6060485;28;19932;-47
2021/12/15 13:07:12;;;;;;;;;;;22.90;45.60;;;;;;6063097;28;20457;-44
2021/12/15 13:10:14;;;;;;;;;;;22.90;45.00;;;;;;6075920;28;19928;-40
2021/12/15 13:13:16;;;;;;;;;;;22.70;45.60;;;;;;6055752;28;19929;-39
2021/12/15 13:16:23;;;;;;;;;;;22.80;45.50;;;;;;6068774;28;19936;-39
2021/12/15 13:19:26;;;;;;;;;;;22.90;45.60;;;;;;6072428;28;19928;-39
2021/12/15 13:22:39;;;;;;;;;;;22.80;45.50;;;;;;6034630;28;19943;-37
2021/12/15 13:29:19;;;;;;;;;;;22.90;44.70;;;;;;6060740;28;19935;-37
2021/12/15 13:32:26;;;;;;;;;;;23.10;43.40;;;;;;6045308;28;19928;-37
2021/12/15 13:35:34;;;;;;;;;;;23.10;45.20;;;;;;6067119;28;19932;-37
2021/12/15 13:38:38;;;;;;;;;;;23.10;45.20;;;;;;6043624;28;20052;-38
2021/12/15 13:41:44;;;;;;;;;;;23.10;45.00;;;;;;6037141;28;19928;-38
2021/12/15 13:44:47;;;;;;;;;;;23.20;45.20;;;;;;6060960;28;20021;-36
2021/12/15 13:47:48;;;;;;;;;;;22.80;44.80;;;;;;6084544;28;19936;-37
2021/12/15 13:50:50;;;;;;;;;;;23.20;44.90;;;;;;6065546;28;19934;-37
2021/12/15 13:53:52;;;;;;;;;;;23.30;45.00;;;;;;6065145;28;20046;-36
2021/12/15 13:56:54;;;;;;;;;;;22.70;44.60;;;;;;6076101;28;19928;-40
2021/12/15 14:00:07;;;;;;;;;;;22.80;44.70;;;;;;6078230;28;22745;-40
2021/12/15 14:03:17;;;;;;;;;;;23.10;44.90;;;;;;6038786;28;20130;-41
2021/12/15 14:06:22;;;;;;;;;;;22.50;44.10;;;;;;6052593;28;20920;-41
2021/12/15 14:09:30;;;;;;;;;;;23.10;44.90;;;;;;6079094;28;19928;-39
2021/12/15 14:12:47;;;;;;;;;;;23.10;44.70;;;;;;6087091;28;19936;-41
2021/12/15 14:15:53;;;;;;;;;;;22.90;44.60;;;;;;6078728;28;19928;-38
2021/12/15 14:18:54;;;;;;;;;;;22.70;44.50;;;;;;6060974;28;19970;-40
2021/12/15 14:21:58;;;;;;;;;;;22.90;44.90;;;;;;6075459;28;19928;-39
2021/12/15 14:25:02;;;;;;;;;;;23.00;44.60;;;;;;6082195;28;19935;-40
2021/12/15 14:28:06;;;;;;;;;;;23.40;44.80;;;;;;6080845;28;19935;-40
2021/12/15 14:31:09;;;;;;;;;;;23.40;44.60;;;;;;6089937;28;19928;-38
2021/12/15 14:34:12;;;;;;;;;;;23.20;44.40;;;;;;6045609;28;19944;-38
2021/12/15 14:37:16;;;;;;;;;;;23.00;44.50;;;;;;6078440;28;20246;-39
2021/12/15 14:40:18;;;;;;;;;;;23.50;44.60;;;;;;6089690;28;20463;-38
2021/12/15 14:43:19;;;;;;;;;;;23.40;44.60;;;;;;6092081;28;23564;-44
2021/12/15 14:46:24;;;;;;;;;;;23.10;45.10;;;;;;6080393;28;19935;-39
2021/12/15 14:49:27;;;;;;;;;;;23.10;44.00;;;;;;6096675;28;21769;-40
2021/12/15 14:52:31;;;;;;;;;;;23.40;44.70;;;;;;6087095;28;21193;-41
2021/12/15 14:55:33;;;;;;;;;;;23.40;44.70;;;;;;6082076;28;19932;-39
2021/12/15 14:58:42;;;;;;;;;;;23.40;44.70;;;;;;6078633;28;19928;-37
2021/12/15 15:01:46;;;;;;;;;;;23.00;44.40;;;;;;6079612;28;20402;-39
2021/12/15 15:04:49;;;;;;;;;;;22.80;44.30;;;;;;6074924;28;21590;-41
2021/12/15 15:07:53;;;;;;;;;;;23.70;44.70;;;;;;6050193;28;19928;-38
2021/12/15 15:10:55;;;;;;;;;;;23.40;44.80;;;;;;6091175;28;21294;-39
2021/12/15 15:13:56;;;;;;;;;;;23.80;45.10;;;;;;6093945;28;19958;-39
2021/12/15 15:16:58;;;;;;;;;;;23.30;44.90;;;;;;6094635;28;19928;-40
2021/12/15 15:20:01;;;;;;;;;;;23.50;44.40;;;;;;6066391;28;19934;-39
2021/12/15 15:23:04;;;;;;;;;;;23.10;45.20;;;;;;6093582;28;19929;-37
2021/12/15 15:26:10;;;;;;;;;;;22.90;44.80;;;;;;6075039;28;20073;-38
2021/12/15 15:29:11;;;;;;;;;;;23.50;45.00;;;;;;6076775;28;19936;-38
2021/12/15 15:32:15;;;;;;;;;;;22.60;44.40;;;;;;6069569;28;19934;-38
2021/12/15 15:35:18;;;;;;;;;;;23.30;44.80;;;;;;6080514;28;19929;-39
2021/12/15 15:38:21;;;;;;;;;;;23.00;44.60;;;;;;6065589;28;19928;-42
2021/12/15 15:41:24;;;;;;;;;;;23.00;44.60;;;;;;6070489;28;19935;-39
2021/12/15 15:44:33;;;;;;;;;;;23.30;45.10;;;;;;6053388;28;19933;-40
2021/12/15 15:47:34;;;;;;;;;;;22.80;44.30;;;;;;6067331;28;19928;-38
2021/12/15 15:50:37;;;;;;;;;;;23.60;44.80;;;;;;6080203;28;20062;-38
2021/12/15 15:53:39;;;;;;;;;;;23.00;44.30;;;;;;6072795;28;21211;-38
2021/12/15 15:56:41;;;;;;;;;;;23.50;44.40;;;;;;6064184;28;26724;-39
2021/12/15 15:59:43;;;;;;;;;;;23.60;44.50;;;;;;6071816;28;26497;-38
2021/12/15 16:02:44;;;;;;;;;;;23.40;44.40;;;;;;6089725;28;19929;-38
2021/12/15 16:05:46;;;;;;;;;;;23.40;44.50;;;;;;6082399;28;20002;-40
2021/12/15 16:08:49;;;;;;;;;;;23.10;44.10;;;;;;6097217;28;19928;-41
2021/12/15 16:11:52;;;;;;;;;;;23.10;44.10;;;;;;6093401;28;19987;-38
2021/12/15 16:14:54;;;;;;;;;;;23.60;44.40;;;;;;6103678;28;19932;-39
2021/12/15 16:17:57;;;;;;;;;;;23.60;44.40;;;;;;6117885;28;19928;-37
2021/12/15 16:21:11;;;;;;;;;;;23.70;44.40;;;;;;6128746;28;19928;-38
2021/12/15 16:24:14;;;;;;;;;;;23.20;44.10;;;;;;6114058;28;20022;-38
2021/12/15 16:27:16;;;;;;;;;;;23.20;44.30;;;;;;6131309;28;20014;-38
2021/12/15 16:30:21;;;;;;;;;;;23.60;44.30;;;;;;6117029;28;20346;-39
2021/12/15 16:33:24;;;;;;;;;;;23.60;44.40;;;;;;6098120;28;20020;-40
2021/12/15 16:36:25;;;;;;;;;;;23.20;43.60;;;;;;6137250;28;19966;-38
2021/12/15 16:39:28;;;;;;;;;;;23.30;43.90;;;;;;6124706;28;20991;-38
2021/12/15 16:42:50;;;;;;;;;;;23.10;43.50;;;;;;6128810;28;21203;-37
2021/12/15 16:45:52;;;;;;;;;;;23.90;43.80;;;;;;6106119;28;19928;-38
2021/12/15 16:48:54;;;;;;;;;;;23.70;43.60;;;;;;6144407;28;19928;-37
2021/12/15 16:51:58;;;;;;;;;;;23.70;43.10;;;;;;6135042;28;28229;-37
2021/12/15 16:55:01;;;;;;;;;;;23.60;43.10;;;;;;6136619;28;25102;-37
2021/12/15 16:58:04;;;;;;;;;;;23.70;43.90;;;;;;6129833;28;20005;-36
2021/12/15 17:01:07;;;;;;;;;;;23.30;43.50;;;;;;6128168;28;21277;-37
2021/12/15 17:04:09;;;;;;;;;;;23.60;43.70;;;;;;6131545;28;19928;-37
2021/12/15 17:07:11;;;;;;;;;;;23.60;43.60;;;;;;6125507;28;19935;-37
2021/12/15 17:10:14;;;;;;;;;;;23.10;43.60;;;;;;6153965;28;21147;-37
2021/12/15 17:13:22;;;;;;;;;;;23.10;43.70;;;;;;6113132;28;21162;-37
2021/12/15 17:16:26;;;;;;;;;;;23.50;43.70;;;;;;6148042;28;21209;-37
2021/12/15 17:19:30;;;;;;;;;;;23.10;44.30;;;;;;6156858;28;19936;-36
2021/12/15 17:22:38;;;;;;;;;;;23.40;44.10;;;;;;6167099;28;19928;-37
2021/12/15 17:25:41;;;;;;;;;;;23.00;43.70;;;;;;6181488;28;19934;-37
2021/12/15 17:28:44;;;;;;;;;;;23.20;44.20;;;;;;6177876;28;19928;-37
2021/12/15 17:31:50;;;;;;;;;;;23.40;44.30;;;;;;6163350;28;19936;-37
2021/12/15 17:34:53;;;;;;;;;;;23.20;44.20;;;;;;6162861;28;20012;-38
2021/12/15 17:37:54;;;;;;;;;;;23.30;44.40;;;;;;6168379;28;20215;-37
2021/12/15 17:41:06;;;;;;;;;;;23.50;44.50;;;;;;6175645;28;20259;-38
2021/12/15 17:44:22;;;;;;;;;;;22.80;44.00;;;;;;6176527;28;20213;-37
2021/12/15 17:47:25;;;;;;;;;;;23.20;44.40;;;;;;6159792;28;20070;-37
2021/12/15 17:50:27;;;;;;;;;;;22.80;44.20;;;;;;6155579;28;19936;-37
2021/12/15 17:53:30;;;;;;;;;;;23.20;44.30;;;;;;6191820;28;20315;-37
2021/12/15 17:56:31;;;;;;;;;;;22.90;44.00;;;;;;6186910;28;21009;-37
2021/12/15 17:59:36;;;;;;;;;;;23.00;44.50;;;;;;6207970;28;20027;-37
2021/12/15 18:02:38;;;;;;;;;;;23.30;44.50;;;;;;6193186;28;20876;-38
2021/12/15 18:05:40;;;;;;;;;;;22.70;44.30;;;;;;6215996;28;19936;-37
2021/12/15 18:08:42;;;;;;;;;;;22.60;44.30;;;;;;6216970;28;20475;-38
2021/12/15 18:11:43;;;;;;;;;;;22.70;44.30;;;;;;6203385;28;19935;-37
2021/12/15 18:14:46;;;;;;;;;;;22.60;44.50;;;;;;6218683;28;21310;-37
2021/12/15 18:17:48;;;;;;;;;;;22.90;44.60;;;;;;6207625;28;19928;-37
2021/12/15 18:20:51;;;;;;;;;;;22.50;44.40;;;;;;6216852;28;19935;-37
2021/12/15 18:23:53;;;;;;;;;;;22.50;44.50;;;;;;6220595;28;20010;-40
2021/12/15 18:26:56;;;;;;;;;;;22.40;44.50;;;;;;6207954;28;19932;-36
2021/12/15 18:29:58;;;;;;;;;;;22.60;44.60;;;;;;6193022;28;19935;-37
2021/12/15 18:32:59;;;;;;;;;;;23.10;45.00;;;;;;6219642;28;20874;-37
2021/12/15 18:36:03;;;;;;;;;;;22.50;44.70;;;;;;6205589;28;19940;-37
2021/12/15 18:39:05;;;;;;;;;;;22.40;44.70;;;;;;6166357;28;19955;-37
2021/12/15 18:42:07;;;;;;;;;;;22.80;45.00;;;;;;6216677;28;20039;-37
2021/12/15 18:45:09;;;;;;;;;;;22.40;45.00;;;;;;6215609;28;19928;-37
2021/12/15 18:48:10;;;;;;;;;;;22.60;45.00;;;;;;6212323;28;20352;-37
2021/12/15 18:51:12;;;;;;;;;;;22.40;45.10;;;;;;6210862;28;20037;-36
2021/12/15 18:54:14;;;;;;;;;;;22.30;45.10;;;;;;6216566;28;20775;-36
2021/12/15 18:57:16;;;;;;;;;;;22.20;45.00;;;;;;6214154;28;19929;-36